createdAt,value
2022-08-09T00:00:28.860Z,19.51
2022-08-09T00:02:55.460Z,19.61
2022-08-09T00:06:16.058Z,19.60
2022-08-09T00:08:31.361Z,19.55
2022-08-09T00:10:59.980Z,19.45
2022-08-09T00:13:27.192Z,19.25
2022-08-09T00:15:59.785Z,19.42
2022-08-09T00:18:36.114Z,19.29
2022-08-09T00:21:05.227Z,19.26
2022-08-09T00:23:57.724Z,19.09
2022-08-09T00:26:32.830Z,18.85
2022-08-09T00:29:01.997Z,18.75
2022-08-09T00:31:58.249Z,18.82
2022-08-09T00:34:19.189Z,18.40
2022-08-09T00:36:47.692Z,18.56
2022-08-09T00:40:09.206Z,18.38
2022-08-09T00:44:16.958Z,18.52
2022-08-09T00:44:50.430Z,18.41
2022-08-09T00:47:20.065Z,18.44
2022-08-09T00:49:54.552Z,18.36
2022-08-09T00:52:30.098Z,18.28
2022-08-09T00:55:01.870Z,18.19
2022-08-09T00:57:35.733Z,18.17
2022-08-09T01:00:21.986Z,17.96
2022-08-09T01:02:57.411Z,17.94
2022-08-09T01:05:53.172Z,17.96
2022-08-09T01:08:27.144Z,18.01
2022-08-09T01:11:14.957Z,17.90
2022-08-09T01:14:11.782Z,17.52
2022-08-09T01:16:47.291Z,17.48
2022-08-09T01:20:02.742Z,17.66
2022-08-09T01:22:51.362Z,17.54
2022-08-09T01:25:48.854Z,17.58
2022-08-09T01:28:19.156Z,17.42
2022-08-09T01:30:51.831Z,17.56
2022-08-09T01:33:23.959Z,17.59
2022-08-09T01:36:03.042Z,17.45
2022-08-09T01:38:34.636Z,17.41
2022-08-09T01:41:33.734Z,17.37
2022-08-09T01:44:06.265Z,17.28
2022-08-09T01:46:38.089Z,17.28
2022-08-09T01:49:19.016Z,17.27
2022-08-09T01:51:58.070Z,17.27
2022-08-09T01:54:39.882Z,17.29
2022-08-09T01:57:14.835Z,17.20
2022-08-09T01:59:51.901Z,17.12
2022-08-09T02:02:31.117Z,17.25
2022-08-09T02:05:05.443Z,17.45
2022-08-09T02:08:41.353Z,17.93
2022-08-09T02:10:56.835Z,17.84
2022-08-09T02:13:26.113Z,17.80
2022-08-09T02:16:03.965Z,17.73
2022-08-09T02:18:38.086Z,17.39
2022-08-09T02:21:21.790Z,17.41
2022-08-09T02:23:54.464Z,17.25
2022-08-09T02:26:30.534Z,17.25
2022-08-09T02:29:08.952Z,17.16
2022-08-09T02:31:40.897Z,17.22
2022-08-09T02:34:41.792Z,16.97
2022-08-09T02:37:17.029Z,17.07
2022-08-09T02:39:55.023Z,16.89
2022-08-09T02:42:33.571Z,16.76
2022-08-09T02:45:26.700Z,16.92
2022-08-09T02:47:59.702Z,16.62
2022-08-09T02:50:31.105Z,16.82
2022-08-09T02:53:02.754Z,16.74
2022-08-09T02:55:57.267Z,16.61
2022-08-09T02:58:32.946Z,16.60
2022-08-09T03:01:08.254Z,16.50
2022-08-09T03:04:17.159Z,16.39
2022-08-09T03:06:34.315Z,16.44
2022-08-09T03:09:06.274Z,16.43
2022-08-09T03:12:09.811Z,16.37
2022-08-09T03:14:32.674Z,16.29
2022-08-09T03:17:05.611Z,16.27
2022-08-09T03:19:57.744Z,16.25
2022-08-09T03:22:29.996Z,16.20
2022-08-09T03:25:16.177Z,16.23
2022-08-09T03:27:51.035Z,16.17
2022-08-09T03:30:29.946Z,15.93
2022-08-09T03:33:05.817Z,16.27
2022-08-09T03:36:13.980Z,16.29
2022-08-09T03:38:31.646Z,16.29
2022-08-09T03:41:03.150Z,16.21
2022-08-09T03:43:32.213Z,16.12
2022-08-09T03:46:04.983Z,16.10
2022-08-09T03:48:55.386Z,15.98
2022-08-09T03:51:55.418Z,16.10
2022-08-09T03:54:14.684Z,15.87
2022-08-09T03:56:44.863Z,15.95
2022-08-09T03:59:20.779Z,15.96
2022-08-09T04:01:49.760Z,15.95
2022-08-09T04:04:19.597Z,15.97
2022-08-09T04:06:50.050Z,15.92
2022-08-09T04:09:41.633Z,15.74
2022-08-09T04:12:11.854Z,15.98
2022-08-09T04:15:01.403Z,15.88
2022-08-09T04:17:30.414Z,15.89
2022-08-09T04:19:58.858Z,15.75
2022-08-09T04:22:29.608Z,15.93
2022-08-09T04:25:01.407Z,15.85
2022-08-09T04:27:29.962Z,15.85
2022-08-09T04:30:02.132Z,15.93
2022-08-09T04:32:31.439Z,15.89
2022-08-09T04:35:08.502Z,15.84
2022-08-09T04:37:45.993Z,15.81
2022-08-09T04:40:28.491Z,15.84
2022-08-09T04:43:02.496Z,16.00
2022-08-09T04:45:36.129Z,15.96
2022-08-09T04:48:23.854Z,15.89
2022-08-09T04:50:59.901Z,15.87
2022-08-09T04:53:31.338Z,15.95
2022-08-09T04:56:00.900Z,15.74
2022-08-09T04:58:29.764Z,15.88
2022-08-09T05:00:58.755Z,15.94
2022-08-09T05:03:43.366Z,16.06
2022-08-09T05:06:27.277Z,16.02
2022-08-09T05:08:59.991Z,16.20
2022-08-09T05:11:35.429Z,16.32
2022-08-09T05:14:06.700Z,16.42
2022-08-09T05:16:43.460Z,16.59
2022-08-09T05:19:25.537Z,17.12
2022-08-09T05:21:55.559Z,17.74
2022-08-09T05:24:25.131Z,19.31
2022-08-09T05:26:52.750Z,19.83
2022-08-09T05:29:21.608Z,19.67
2022-08-09T05:31:57.435Z,19.42
2022-08-09T05:34:31.443Z,19.56
2022-08-09T05:37:06.489Z,20.27
2022-08-09T05:39:43.678Z,20.13
2022-08-09T05:42:17.918Z,20.13
2022-08-09T05:44:51.968Z,19.65
2022-08-09T05:47:23.695Z,19.39
2022-08-09T05:50:23.580Z,19.31
2022-08-09T05:52:39.361Z,20.02
2022-08-09T05:55:10.932Z,20.29
2022-08-09T05:57:55.441Z,19.59
2022-08-09T06:00:33.568Z,19.68
2022-08-09T06:03:02.138Z,19.59
2022-08-09T06:05:54.834Z,20.47
2022-08-09T06:08:19.855Z,21.75
2022-08-09T06:10:55.595Z,22.27
2022-08-09T06:13:23.622Z,23.22
2022-08-09T06:15:52.307Z,24.44
2022-08-09T06:18:23.921Z,25.31
2022-08-09T06:20:57.167Z,24.97
2022-08-09T06:23:55.033Z,25.65
2022-08-09T06:26:21.356Z,24.28
2022-08-09T06:28:59.348Z,23.38
2022-08-09T06:31:31.235Z,22.53
2022-08-09T06:34:00.567Z,22.54
2022-08-09T06:36:29.938Z,22.11
2022-08-09T06:38:59.394Z,22.01
2022-08-09T06:41:56.758Z,21.60
2022-08-09T06:44:18.093Z,21.54
2022-08-09T06:46:45.512Z,21.75
2022-08-09T06:49:12.762Z,21.73
2022-08-09T06:51:42.913Z,21.67
2022-08-09T06:54:15.554Z,21.50
2022-08-09T06:56:46.211Z,21.70
2022-08-09T07:00:54.635Z,21.71
2022-08-09T07:02:04.327Z,21.76
2022-08-09T07:04:31.661Z,21.76
2022-08-09T07:07:01.125Z,22.11
2022-08-09T07:09:54.141Z,21.78
2022-08-09T07:12:22.268Z,22.21
2022-08-09T07:16:38.866Z,22.30
2022-08-09T07:18:02.423Z,22.31
2022-08-09T07:20:31.902Z,22.13
2022-08-09T07:22:58.678Z,22.62
2022-08-09T07:25:27.017Z,22.77
2022-08-09T07:27:57.923Z,22.92
2022-08-09T07:30:33.405Z,22.85
2022-08-09T07:33:00.108Z,23.06
2022-08-09T07:35:27.872Z,23.14
2022-08-09T07:37:59.544Z,23.36
2022-08-09T07:40:27.855Z,23.41
2022-08-09T07:43:14.773Z,23.47
2022-08-09T07:45:43.939Z,23.68
2022-08-09T07:48:25.409Z,23.55
2022-08-09T07:52:02.775Z,23.61
2022-08-09T07:54:06.725Z,23.91
2022-08-09T07:56:45.006Z,24.00
2022-08-09T07:59:34.017Z,23.41
2022-08-09T08:02:09.330Z,23.79
2022-08-09T08:04:39.978Z,24.13
2022-08-09T08:07:15.442Z,24.50
2022-08-09T08:09:55.287Z,24.47
2022-08-09T08:12:35.382Z,24.30
2022-08-09T08:15:07.487Z,24.24
2022-08-09T08:17:54.198Z,24.21
2022-08-09T08:20:32.768Z,24.63
2022-08-09T08:23:15.733Z,24.40
2022-08-09T08:25:49.888Z,24.99
2022-08-09T08:28:31.915Z,25.22
2022-08-09T08:31:00.155Z,25.29
2022-08-09T08:33:49.657Z,25.12
2022-08-09T08:36:29.260Z,25.35
2022-08-09T08:38:57.486Z,24.89
2022-08-09T08:41:41.798Z,25.09
2022-08-09T08:44:16.301Z,25.15
2022-08-09T08:46:59.962Z,25.21
2022-08-09T08:49:38.711Z,25.24
2022-08-09T08:52:57.314Z,25.49
2022-08-09T08:55:07.369Z,25.35
2022-08-09T08:57:38.846Z,25.20
2022-08-09T09:00:17.166Z,25.50
2022-08-09T09:02:52.687Z,25.59
2022-08-09T09:05:57.890Z,25.95
2022-08-09T09:08:30.347Z,25.66
2022-08-09T09:11:05.464Z,25.98
2022-08-09T09:13:54.749Z,25.94
2022-08-09T09:16:30.445Z,25.99
2022-08-09T09:22:28.613Z,25.76
2022-08-09T09:26:01.653Z,25.99
2022-08-09T09:28:03.563Z,26.04
2022-08-09T09:30:52.263Z,26.02
2022-08-09T09:33:18.842Z,26.33
2022-08-09T09:36:20.520Z,26.24
2022-08-09T09:38:58.136Z,26.58
2022-08-09T09:41:32.533Z,26.46
2022-08-09T09:44:11.928Z,26.38
2022-08-09T09:46:51.660Z,26.69
2022-08-09T09:49:31.954Z,26.76
2022-08-09T09:52:35.650Z,27.01
2022-08-09T09:55:28.307Z,26.98
2022-08-09T09:58:18.101Z,27.13
2022-08-09T10:00:55.456Z,27.04
2022-08-09T10:03:37.830Z,27.22
2022-08-09T10:06:09.107Z,27.53
2022-08-09T10:08:43.116Z,27.30
2022-08-09T10:12:00.703Z,26.82
2022-08-09T10:14:30.655Z,27.01
2022-08-09T10:17:05.371Z,26.96
2022-08-09T10:19:45.742Z,27.06
2022-08-09T10:22:15.254Z,26.67
2022-08-09T10:24:58.369Z,27.23
2022-08-09T10:27:34.784Z,27.07
2022-08-09T10:30:30.044Z,27.00
2022-08-09T10:32:56.882Z,27.27
2022-08-09T10:35:26.390Z,27.48
2022-08-09T10:37:53.488Z,27.14
2022-08-09T10:40:35.108Z,27.56
2022-08-09T10:43:08.160Z,27.37
2022-08-09T10:45:42.384Z,27.55
2022-08-09T10:48:37.477Z,27.64
2022-08-09T10:51:17.591Z,27.65
2022-08-09T10:53:58.304Z,27.79
2022-08-09T10:56:41.081Z,27.80
2022-08-09T10:59:30.704Z,27.90
2022-08-09T11:03:15.454Z,27.70
2022-08-09T11:05:13.954Z,27.62
2022-08-09T11:07:56.852Z,27.93
2022-08-09T11:10:53.346Z,28.23
2022-08-09T11:13:49.938Z,28.30
2022-08-09T11:16:33.423Z,28.21
2022-08-09T11:19:02.189Z,28.19
2022-08-09T11:21:57.516Z,28.23
2022-08-09T11:25:04.620Z,28.23
2022-08-09T11:28:07.973Z,28.39
2022-08-09T11:30:39.342Z,27.92
2022-08-09T11:33:17.658Z,27.87
2022-08-09T11:35:49.981Z,28.25
2022-08-09T11:38:33.225Z,28.32
2022-08-09T11:41:16.097Z,28.32
2022-08-09T11:43:52.053Z,28.48
2022-08-09T11:46:33.318Z,28.21
2022-08-09T11:49:05.228Z,27.97
2022-08-09T11:53:03.950Z,28.41
2022-08-09T11:55:51.487Z,28.50
2022-08-09T11:58:15.001Z,28.60
2022-08-09T12:00:56.346Z,28.61
2022-08-09T12:03:50.484Z,28.41
2022-08-09T12:06:16.114Z,28.33
2022-08-09T12:08:53.666Z,28.52
2022-08-09T12:11:22.952Z,28.93
2022-08-09T12:14:08.269Z,28.80
2022-08-09T12:16:42.910Z,28.55
2022-08-09T12:19:12.255Z,29.09
2022-08-09T12:21:51.720Z,29.30
2022-08-09T12:24:25.875Z,28.99
2022-08-09T12:28:58.338Z,29.10
2022-08-09T12:30:02.116Z,29.14
2022-08-09T12:32:44.119Z,29.15
2022-08-09T12:35:21.568Z,28.97
2022-08-09T12:37:52.433Z,29.26
2022-08-09T12:40:27.310Z,29.19
2022-08-09T12:42:54.912Z,28.85
2022-08-09T12:45:32.188Z,29.22
2022-08-09T12:48:03.225Z,28.96
2022-08-09T12:50:30.207Z,28.39
2022-08-09T12:53:09.686Z,29.07
2022-08-09T12:56:11.450Z,29.18
2022-08-09T12:58:42.674Z,29.35
2022-08-09T13:01:28.182Z,29.15
2022-08-09T13:04:06.762Z,29.45
2022-08-09T13:06:56.006Z,29.25
2022-08-09T13:09:31.780Z,29.52
2022-08-09T13:12:06.214Z,29.34
2022-08-09T13:14:41.349Z,29.45
2022-08-09T13:17:44.337Z,29.55
2022-08-09T13:20:14.109Z,29.53
2022-08-09T13:23:05.619Z,29.81
2022-08-09T13:25:53.425Z,29.46
2022-08-09T13:28:33.817Z,29.79
2022-08-09T13:32:14.840Z,29.97
2022-08-09T13:33:59.126Z,29.65
2022-08-09T13:36:41.342Z,29.44
2022-08-09T13:41:17.364Z,29.39
2022-08-09T13:42:04.637Z,29.35
2022-08-09T13:44:33.142Z,29.30
2022-08-09T13:47:27.327Z,29.92
2022-08-09T13:49:56.134Z,29.72
2022-08-09T13:52:26.932Z,30.08
2022-08-09T13:54:58.850Z,29.95
2022-08-09T13:57:36.482Z,29.77
2022-08-09T14:00:12.074Z,29.62
2022-08-09T14:02:42.567Z,29.95
2022-08-09T14:05:59.260Z,29.83
2022-08-09T14:08:13.374Z,29.53
2022-08-09T14:10:50.630Z,29.85
2022-08-09T14:14:15.128Z,29.80
2022-08-09T14:16:18.195Z,29.83
2022-08-09T14:18:50.313Z,29.68
2022-08-09T14:21:25.697Z,29.70
2022-08-09T14:23:57.348Z,29.56
2022-08-09T14:26:33.908Z,29.69
2022-08-09T14:29:07.385Z,29.79
2022-08-09T14:31:52.265Z,29.42
2022-08-09T14:34:31.281Z,29.31
2022-08-09T14:37:06.651Z,29.87
2022-08-09T14:39:45.959Z,29.87
2022-08-09T14:42:31.149Z,29.88
2022-08-09T14:46:38.826Z,29.43
2022-08-09T14:47:57.980Z,29.65
2022-08-09T14:50:29.402Z,29.67
2022-08-09T14:53:01.614Z,29.62
2022-08-09T14:55:32.671Z,29.33
2022-08-09T14:58:03.740Z,29.40
2022-08-09T15:00:36.397Z,29.19
2022-08-09T15:03:10.536Z,29.50
2022-08-09T15:05:38.373Z,29.41
2022-08-09T15:08:06.361Z,29.01
2022-08-09T15:10:39.818Z,28.74
2022-08-09T15:13:12.919Z,29.21
2022-08-09T15:15:43.829Z,29.16
2022-08-09T15:18:12.430Z,29.27
2022-08-09T15:21:55.732Z,29.25
2022-08-09T15:24:01.338Z,29.31
2022-08-09T15:26:19.030Z,29.38
2022-08-09T15:28:55.437Z,29.36
2022-08-09T15:31:28.606Z,29.72
2022-08-09T15:34:17.514Z,29.60
2022-08-09T15:36:58.578Z,29.35
2022-08-09T15:39:43.908Z,29.15
2022-08-09T15:42:18.857Z,29.30
2022-08-09T15:44:45.917Z,29.24
2022-08-09T15:47:22.560Z,29.53
2022-08-09T15:50:04.937Z,29.33
2022-08-09T15:52:42.487Z,29.20
2022-08-09T15:55:26.516Z,29.18
2022-08-09T15:57:55.186Z,29.09
2022-08-09T16:00:26.615Z,28.87
2022-08-09T16:02:56.697Z,29.01
2022-08-09T16:05:53.095Z,29.11
2022-08-09T16:08:29.684Z,29.02
2022-08-09T16:10:57.922Z,28.98
2022-08-09T16:14:05.482Z,28.87
2022-08-09T16:16:17.228Z,28.98
2022-08-09T16:18:47.609Z,29.16
2022-08-09T16:21:17.558Z,28.35
2022-08-09T16:23:54.823Z,28.49
2022-08-09T16:26:34.539Z,28.27
2022-08-09T16:29:11.343Z,28.18
2022-08-09T16:32:18.923Z,28.55
2022-08-09T16:34:55.260Z,28.43
2022-08-09T16:37:53.193Z,28.66
2022-08-09T16:40:12.859Z,28.61
2022-08-09T16:42:45.597Z,28.58
2022-08-09T16:45:19.002Z,28.17
2022-08-09T16:48:41.702Z,28.29
2022-08-09T16:50:39.473Z,28.43
2022-08-09T16:53:06.496Z,28.34
2022-08-09T16:55:58.338Z,28.25
2022-08-09T16:58:24.111Z,27.95
2022-08-09T17:00:50.998Z,28.07
2022-08-09T17:03:21.443Z,28.00
2022-08-09T17:06:06.812Z,28.05
2022-08-09T17:08:45.794Z,28.14
2022-08-09T17:11:24.600Z,27.97
2022-08-09T17:14:02.317Z,27.59
2022-08-09T17:16:29.297Z,27.67
2022-08-09T17:18:58.376Z,27.70
2022-08-09T17:21:31.454Z,27.48
2022-08-09T17:24:21.081Z,27.52
2022-08-09T17:26:47.752Z,27.38
2022-08-09T17:29:20.755Z,27.33
2022-08-09T17:31:49.174Z,27.35
2022-08-09T17:35:04.021Z,27.09
2022-08-09T17:37:07.537Z,27.12
2022-08-09T17:39:52.593Z,27.04
2022-08-09T17:42:40.807Z,26.83
2022-08-09T17:45:16.128Z,26.73
2022-08-09T17:47:55.859Z,26.61
2022-08-09T17:50:37.015Z,26.50
2022-08-09T17:53:10.468Z,26.34
2022-08-09T17:55:54.137Z,26.17
2022-08-09T17:58:27.013Z,26.10
2022-08-09T18:00:54.897Z,26.00
2022-08-09T18:03:24.382Z,26.07
2022-08-09T18:05:53.099Z,25.93
2022-08-09T18:08:22.175Z,25.89
2022-08-09T18:11:01.737Z,25.77
2022-08-09T18:13:53.555Z,25.65
2022-08-09T18:16:28.936Z,25.64
2022-08-09T18:18:56.941Z,25.51
2022-08-09T18:21:25.852Z,25.44
2022-08-09T18:24:09.515Z,25.41
2022-08-09T18:26:45.979Z,25.28
2022-08-09T18:30:41.749Z,25.25
2022-08-09T18:32:03.054Z,25.13
2022-08-09T18:34:31.658Z,25.05
2022-08-09T18:37:01.094Z,24.98
2022-08-09T18:39:32.095Z,24.95
2022-08-09T18:42:01.232Z,24.90
2022-08-09T18:44:30.598Z,24.80
2022-08-09T18:47:05.109Z,24.62
2022-08-09T18:49:47.020Z,24.62
2022-08-09T18:52:25.026Z,24.58
2022-08-09T18:55:04.008Z,24.47
2022-08-09T18:57:43.530Z,24.49
2022-08-09T19:00:16.276Z,24.46
2022-08-09T19:02:46.263Z,24.32
2022-08-09T19:05:24.487Z,24.31
2022-08-09T19:08:10.752Z,24.25
2022-08-09T19:10:41.242Z,24.11
2022-08-09T19:13:20.919Z,24.05
2022-08-09T19:15:56.657Z,24.01
2022-08-09T19:18:35.715Z,24.00
2022-08-09T19:21:10.622Z,23.97
2022-08-09T19:24:33.280Z,23.92
2022-08-09T19:26:35.061Z,23.81
2022-08-09T19:29:15.300Z,23.76
2022-08-09T19:31:46.255Z,23.75
2022-08-09T19:34:21.621Z,23.66
2022-08-09T19:36:54.037Z,23.62
2022-08-09T19:39:43.493Z,23.52
2022-08-09T19:42:15.374Z,23.58
2022-08-09T19:44:50.638Z,23.56
2022-08-09T19:47:22.971Z,23.33
2022-08-09T19:50:06.831Z,23.31
2022-08-09T19:52:37.775Z,23.35
2022-08-09T19:55:19.382Z,23.36
2022-08-09T19:57:51.617Z,23.12
2022-08-09T20:00:18.965Z,23.26
2022-08-09T20:04:09.785Z,23.30
2022-08-09T20:05:46.780Z,23.16
2022-08-09T20:08:25.140Z,23.13
2022-08-09T20:11:02.509Z,22.97
2022-08-09T20:13:37.227Z,23.04
2022-08-09T20:16:34.642Z,23.06
2022-08-09T20:19:04.075Z,22.96
2022-08-09T20:21:41.069Z,22.94
2022-08-09T20:24:29.433Z,22.87
2022-08-09T20:27:05.773Z,22.87
2022-08-09T20:29:38.730Z,22.89
2022-08-09T20:32:40.168Z,22.88
2022-08-09T20:34:59.549Z,22.89
2022-08-09T20:38:19.076Z,22.94
2022-08-09T20:40:24.808Z,22.89
2022-08-09T20:43:12.012Z,22.79
2022-08-09T20:45:59.669Z,22.79
2022-08-09T20:48:31.043Z,22.84
2022-08-09T20:50:59.330Z,22.74
2022-08-09T20:53:35.862Z,22.64
2022-08-09T20:56:20.814Z,22.71
2022-08-09T20:58:58.731Z,22.77
2022-08-09T21:01:35.246Z,22.65
2022-08-09T21:05:50.979Z,22.65
2022-08-09T21:07:11.386Z,22.59
2022-08-09T21:09:45.548Z,22.61
2022-08-09T21:12:17.914Z,22.48
2022-08-09T21:14:46.266Z,22.43
2022-08-09T21:18:23.351Z,22.40
2022-08-09T21:20:25.258Z,22.24
2022-08-09T21:22:55.580Z,22.17
2022-08-09T21:25:44.317Z,22.07
2022-08-09T21:28:34.470Z,22.14
2022-08-09T21:31:16.192Z,22.01
2022-08-09T21:33:46.137Z,21.96
2022-08-09T21:36:18.158Z,21.80
2022-08-09T21:38:45.592Z,21.86
2022-08-09T21:41:22.491Z,21.81
2022-08-09T21:44:09.415Z,21.96
2022-08-09T21:46:38.866Z,21.88
2022-08-09T21:49:08.319Z,21.88
2022-08-09T21:51:36.424Z,21.85
2022-08-09T21:54:13.070Z,21.82
2022-08-09T21:56:44.761Z,21.79
2022-08-09T21:59:25.474Z,21.81
2022-08-09T22:02:00.523Z,21.74
2022-08-09T22:04:57.270Z,21.73
2022-08-09T22:07:35.130Z,21.68
2022-08-09T22:10:07.524Z,21.50
2022-08-09T22:12:38.931Z,21.50
2022-08-09T22:15:13.860Z,21.48
2022-08-09T22:17:47.314Z,21.44
2022-08-09T22:20:16.854Z,21.40
2022-08-09T22:22:53.307Z,21.47
2022-08-09T22:26:07.453Z,21.40
2022-08-09T22:28:11.369Z,21.44
2022-08-09T22:30:39.262Z,21.38
2022-08-09T22:33:17.273Z,21.33
2022-08-09T22:36:01.492Z,21.31
2022-08-09T22:38:32.359Z,21.22
2022-08-09T22:40:59.780Z,21.24
2022-08-09T22:44:02.167Z,21.19
2022-08-09T22:48:15.524Z,21.18
2022-08-09T22:49:10.197Z,21.08
2022-08-09T22:51:43.445Z,21.11
2022-08-09T22:54:21.264Z,21.01
2022-08-09T22:56:50.994Z,21.02
2022-08-09T22:59:57.430Z,21.05
2022-08-09T23:02:14.921Z,20.96
2022-08-09T23:04:53.456Z,20.96
2022-08-09T23:08:22.286Z,20.95
2022-08-09T23:10:26.137Z,20.94
2022-08-09T23:12:52.673Z,20.87
2022-08-09T23:15:21.903Z,20.85
2022-08-09T23:17:50.631Z,20.86
2022-08-09T23:20:19.710Z,20.81
2022-08-09T23:22:48.932Z,20.74
2022-08-09T23:25:18.652Z,20.74
2022-08-09T23:28:14.889Z,20.83
2022-08-09T23:30:34.462Z,20.81
2022-08-09T23:33:03.137Z,20.77
2022-08-09T23:35:29.703Z,20.54
2022-08-09T23:37:56.269Z,20.72
2022-08-09T23:40:22.892Z,20.68
2022-08-09T23:42:49.447Z,20.71
2022-08-09T23:45:37.318Z,20.54
2022-08-09T23:48:08.987Z,20.59
2022-08-09T23:50:35.894Z,20.53
2022-08-09T23:53:02.937Z,20.54
2022-08-09T23:55:30.598Z,20.46
2022-08-09T23:58:10.568Z,20.44
